Pictou, Canada
Current Conditions -  °F | °C
As of 11:00 PM on Saturday 25 Oct 2014 (Local Time) from CYYG Reporting Station
Overcast Overcast  
Wind Chill: 44°   Ceiling: 1000
Heat Index: 46°   Visibility: 15mi
Dew Point: 45°   Wind: 6mph
Humidity: 93%   Direction: 260°W
Pressure: 29.47"   Gusts: NA
Location:  45.67°N, 62.7°W
Report Text: CYYG 260200Z 26005KT 15SM BKN010 OVC058 08/07 A2947 RMK SC6SC2 SLP981
Loading
Personal Weather Stations






























Interactive Weather Map New forecast layout! Learn more

10-Day Weather Forecast

Advertisements
Track Severe Weather on mobile